This is the latest recevied weather packets stored in our database for station/object EA4IAJ-12. If no packets are shown the sender has not sent any weather packets the latest 10 day(s).
| Time | Temp. | Humidity | Pressure | Rain* | Wind** | Luminosity | Snow |
|---|---|---|---|---|---|---|---|
| 1787726181 | 17.78° C | 100% | 1003.8 hPa | - | - | - | - |
| 1787725282 | 17.22° C | 100% | 1001.4 hPa | - | - | - | - |
| 1787724379 | 16.67° C | 100% | 999.3 hPa | - | - | - | - |
| 1787723696 | 16.11° C | 100% | 996.5 hPa | - | - | - | - |
| 1787723479 | 16.11° C | 100% | 996.5 hPa | - | - | - | - |
| 1787722579 | 15.56° C | 100% | 994.6 hPa | - | - | - | - |
| 1787721678 | 15.56° C | 100% | 994.1 hPa | - | - | - | - |
| 1787721023 | 15.56° C | 100% | 993.4 hPa | - | - | - | - |
| 1787720777 | 15.56° C | 100% | 993.4 hPa | - | - | - | - |
| 1787719877 | 15.56° C | 100% | 993.1 hPa | - | - | - | - |
| 1787718977 | 15° C | 100% | 992.1 hPa | - | - | - | - |
| 1787718076 | 15.56° C | 100% | 992.9 hPa | - | - | - | - |
| 1787717176 | 15.56° C | 100% | 992.7 hPa | - | - | - | - |
| 1787716301 | 15.56° C | 100% | 992.4 hPa | - | - | - | - |
| 1787715392 | 15.56° C | 100% | 992.6 hPa | - | - | - | - |
| 1787714501 | 15° C | 100% | 990.9 hPa | - | - | - | - |
| 1787713591 | 15.56° C | 98% | 991.7 hPa | - | - | - | - |
| 1787712691 | 15.56° C | 97% | 991.7 hPa | - | - | - | - |
| 1787711790 | 16.11° C | 96% | 993.8 hPa | - | - | - | - |
| 1787710890 | 16.67° C | 95% | 994.8 hPa | - | - | - | - |
| 1787709989 | 16.67° C | 93% | 994.8 hPa | - | - | - | - |
| 1787709095 | 16.67° C | 91% | 995.1 hPa | - | - | - | - |
| 1787708188 | 17.22° C | 89% | 996.4 hPa | - | - | - | - |
| 1787706387 | 16.67° C | 83% | 994.7 hPa | - | - | - | - |
| 1787704700 | 17.22° C | 79% | 995.2 hPa | - | - | - | - |
* Rain since midnight (hover to see other rain measurements)
** Current wind speed in m/s (hover to see current wind gust speed)